sensor_id;sensor_type;location;lat;lon;timestamp;temperature;humidity
53254;DHT22;39148;53.332;6.922;2022-07-23T00:01:36;20.70;75.70
53254;DHT22;39148;53.332;6.922;2022-07-23T00:04:02;20.70;75.50
53254;DHT22;39148;53.332;6.922;2022-07-23T00:06:27;20.80;75.90
53254;DHT22;39148;53.332;6.922;2022-07-23T00:08:53;20.70;76.30
53254;DHT22;39148;53.332;6.922;2022-07-23T00:11:19;20.60;75.80
53254;DHT22;39148;53.332;6.922;2022-07-23T00:13:45;20.60;75.90
53254;DHT22;39148;53.332;6.922;2022-07-23T00:16:10;20.60;75.90
53254;DHT22;39148;53.332;6.922;2022-07-23T00:18:36;20.70;76.00
53254;DHT22;39148;53.332;6.922;2022-07-23T00:21:02;20.60;75.90
53254;DHT22;39148;53.332;6.922;2022-07-23T00:23:27;20.60;75.90
53254;DHT22;39148;53.332;6.922;2022-07-23T00:25:54;20.60;76.00
53254;DHT22;39148;53.332;6.922;2022-07-23T00:28:20;20.50;75.90
53254;DHT22;39148;53.332;6.922;2022-07-23T00:30:46;20.50;75.90
53254;DHT22;39148;53.332;6.922;2022-07-23T00:33:13;20.50;76.00
53254;DHT22;39148;53.332;6.922;2022-07-23T00:35:40;20.50;76.00
53254;DHT22;39148;53.332;6.922;2022-07-23T00:38:10;20.50;76.20
53254;DHT22;39148;53.332;6.922;2022-07-23T00:40:37;20.40;74.90
53254;DHT22;39148;53.332;6.922;2022-07-23T00:43:03;20.40;76.20
53254;DHT22;39148;53.332;6.922;2022-07-23T00:45:29;20.40;76.20
53254;DHT22;39148;53.332;6.922;2022-07-23T00:47:55;20.50;76.20
53254;DHT22;39148;53.332;6.922;2022-07-23T00:50:21;20.50;76.20
53254;DHT22;39148;53.332;6.922;2022-07-23T00:52:47;20.50;76.70
53254;DHT22;39148;53.332;6.922;2022-07-23T00:55:13;20.50;76.30
53254;DHT22;39148;53.332;6.922;2022-07-23T00:57:40;20.50;76.30
53254;DHT22;39148;53.332;6.922;2022-07-23T01:00:08;20.40;76.50
53254;DHT22;39148;53.332;6.922;2022-07-23T01:02:35;20.40;76.10
53254;DHT22;39148;53.332;6.922;2022-07-23T01:05:01;20.40;76.30
53254;DHT22;39148;53.332;6.922;2022-07-23T01:07:27;20.40;76.30
53254;DHT22;39148;53.332;6.922;2022-07-23T01:09:54;20.20;76.40
53254;DHT22;39148;53.332;6.922;2022-07-23T01:12:20;20.40;76.90
53254;DHT22;39148;53.332;6.922;2022-07-23T01:14:56;20.40;76.40
53254;DHT22;39148;53.332;6.922;2022-07-23T01:17:23;20.30;75.50
53254;DHT22;39148;53.332;6.922;2022-07-23T01:19:49;20.30;76.40
53254;DHT22;39148;53.332;6.922;2022-07-23T01:22:15;20.40;76.50
53254;DHT22;39148;53.332;6.922;2022-07-23T01:24:43;20.30;76.60
53254;DHT22;39148;53.332;6.922;2022-07-23T01:27:08;20.30;76.50
53254;DHT22;39148;53.332;6.922;2022-07-23T01:29:34;20.40;76.60
53254;DHT22;39148;53.332;6.922;2022-07-23T01:32:00;20.30;76.60
53254;DHT22;39148;53.332;6.922;2022-07-23T01:34:25;20.30;76.60
53254;DHT22;39148;53.332;6.922;2022-07-23T01:36:51;20.30;76.60
53254;DHT22;39148;53.332;6.922;2022-07-23T01:39:17;20.30;76.60
53254;DHT22;39148;53.332;6.922;2022-07-23T01:41:42;20.20;76.70
53254;DHT22;39148;53.332;6.922;2022-07-23T01:44:08;20.30;76.70
53254;DHT22;39148;53.332;6.922;2022-07-23T01:46:34;20.30;76.70
53254;DHT22;39148;53.332;6.922;2022-07-23T01:49:00;20.30;76.80
53254;DHT22;39148;53.332;6.922;2022-07-23T01:51:26;20.30;76.90
53254;DHT22;39148;53.332;6.922;2022-07-23T01:53:52;20.30;76.90
53254;DHT22;39148;53.332;6.922;2022-07-23T01:56:17;20.20;76.70
53254;DHT22;39148;53.332;6.922;2022-07-23T01:58:47;20.20;76.80
53254;DHT22;39148;53.332;6.922;2022-07-23T02:01:12;20.10;77.40
53254;DHT22;39148;53.332;6.922;2022-07-23T02:03:38;20.20;76.90
53254;DHT22;39148;53.332;6.922;2022-07-23T02:06:03;20.20;76.90
53254;DHT22;39148;53.332;6.922;2022-07-23T02:08:29;20.20;76.90
53254;DHT22;39148;53.332;6.922;2022-07-23T02:10:55;20.10;76.80
53254;DHT22;39148;53.332;6.922;2022-07-23T02:13:21;20.10;76.90
53254;DHT22;39148;53.332;6.922;2022-07-23T02:15:47;20.00;76.90
53254;DHT22;39148;53.332;6.922;2022-07-23T02:18:12;20.10;77.00
53254;DHT22;39148;53.332;6.922;2022-07-23T02:20:38;20.10;77.00
53254;DHT22;39148;53.332;6.922;2022-07-23T02:23:05;20.10;77.10
53254;DHT22;39148;53.332;6.922;2022-07-23T02:25:32;20.10;77.10
53254;DHT22;39148;53.332;6.922;2022-07-23T02:27:57;20.10;77.20
53254;DHT22;39148;53.332;6.922;2022-07-23T02:30:23;20.00;77.60
53254;DHT22;39148;53.332;6.922;2022-07-23T02:32:49;20.00;77.20
53254;DHT22;39148;53.332;6.922;2022-07-23T02:35:14;19.90;77.10
53254;DHT22;39148;53.332;6.922;2022-07-23T02:37:40;20.00;77.20
53254;DHT22;39148;53.332;6.922;2022-07-23T02:40:06;20.00;77.20
53254;DHT22;39148;53.332;6.922;2022-07-23T02:42:32;20.00;76.90
53254;DHT22;39148;53.332;6.922;2022-07-23T02:44:57;19.90;77.20
53254;DHT22;39148;53.332;6.922;2022-07-23T02:47:23;20.00;77.30
53254;DHT22;39148;53.332;6.922;2022-07-23T02:49:49;19.90;77.20
53254;DHT22;39148;53.332;6.922;2022-07-23T02:52:14;19.90;77.40
53254;DHT22;39148;53.332;6.922;2022-07-23T02:54:40;19.90;77.40
53254;DHT22;39148;53.332;6.922;2022-07-23T02:57:06;19.90;77.40
53254;DHT22;39148;53.332;6.922;2022-07-23T02:59:31;19.90;77.40
53254;DHT22;39148;53.332;6.922;2022-07-23T03:01:57;19.90;77.50
53254;DHT22;39148;53.332;6.922;2022-07-23T03:04:23;19.90;77.40
53254;DHT22;39148;53.332;6.922;2022-07-23T03:06:48;19.90;77.50
53254;DHT22;39148;53.332;6.922;2022-07-23T03:09:14;19.90;77.50
53254;DHT22;39148;53.332;6.922;2022-07-23T03:11:40;19.90;77.60
53254;DHT22;39148;53.332;6.922;2022-07-23T03:14:05;19.80;77.50
53254;DHT22;39148;53.332;6.922;2022-07-23T03:16:33;19.80;77.70
53254;DHT22;39148;53.332;6.922;2022-07-23T03:18:58;19.80;77.70
53254;DHT22;39148;53.332;6.922;2022-07-23T03:21:24;19.80;77.70
53254;DHT22;39148;53.332;6.922;2022-07-23T03:23:50;19.90;77.80
53254;DHT22;39148;53.332;6.922;2022-07-23T03:26:15;19.90;77.80
53254;DHT22;39148;53.332;6.922;2022-07-23T03:28:41;19.80;77.70
53254;DHT22;39148;53.332;6.922;2022-07-23T03:31:07;19.70;77.70
53254;DHT22;39148;53.332;6.922;2022-07-23T03:33:32;19.80;77.70
53254;DHT22;39148;53.332;6.922;2022-07-23T03:35:58;19.70;77.70
53254;DHT22;39148;53.332;6.922;2022-07-23T03:38:24;19.80;77.70
53254;DHT22;39148;53.332;6.922;2022-07-23T03:40:49;19.70;77.80
53254;DHT22;39148;53.332;6.922;2022-07-23T03:43:15;19.70;77.80
53254;DHT22;39148;53.332;6.922;2022-07-23T03:45:41;19.70;77.80
53254;DHT22;39148;53.332;6.922;2022-07-23T03:48:06;19.60;77.80
53254;DHT22;39148;53.332;6.922;2022-07-23T03:50:33;19.60;77.70
53254;DHT22;39148;53.332;6.922;2022-07-23T03:53:00;19.70;78.00
53254;DHT22;39148;53.332;6.922;2022-07-23T03:55:26;19.70;77.80
53254;DHT22;39148;53.332;6.922;2022-07-23T03:57:51;19.60;77.80
53254;DHT22;39148;53.332;6.922;2022-07-23T04:00:17;19.60;77.80
53254;DHT22;39148;53.332;6.922;2022-07-23T04:02:43;19.60;77.90
53254;DHT22;39148;53.332;6.922;2022-07-23T04:05:08;19.70;78.00
53254;DHT22;39148;53.332;6.922;2022-07-23T04:07:34;19.70;78.00
53254;DHT22;39148;53.332;6.922;2022-07-23T04:10:00;19.60;78.00
53254;DHT22;39148;53.332;6.922;2022-07-23T04:12:25;19.60;78.00
53254;DHT22;39148;53.332;6.922;2022-07-23T04:14:51;19.60;78.00
53254;DHT22;39148;53.332;6.922;2022-07-23T04:17:17;19.60;78.10
53254;DHT22;39148;53.332;6.922;2022-07-23T04:19:43;19.60;78.00
53254;DHT22;39148;53.332;6.922;2022-07-23T04:22:12;19.60;78.10
53254;DHT22;39148;53.332;6.922;2022-07-23T04:24:38;19.70;78.30
53254;DHT22;39148;53.332;6.922;2022-07-23T04:27:04;19.60;78.20
53254;DHT22;39148;53.332;6.922;2022-07-23T04:29:30;19.50;78.10
53254;DHT22;39148;53.332;6.922;2022-07-23T04:31:56;19.60;78.20
53254;DHT22;39148;53.332;6.922;2022-07-23T04:34:22;19.50;78.20
53254;DHT22;39148;53.332;6.922;2022-07-23T04:36:48;19.50;78.30
53254;DHT22;39148;53.332;6.922;2022-07-23T04:39:14;19.50;78.20
53254;DHT22;39148;53.332;6.922;2022-07-23T04:41:40;19.50;78.20
53254;DHT22;39148;53.332;6.922;2022-07-23T04:44:05;19.50;78.30
53254;DHT22;39148;53.332;6.922;2022-07-23T04:46:31;19.50;78.20
53254;DHT22;39148;53.332;6.922;2022-07-23T04:48:57;19.50;78.30
53254;DHT22;39148;53.332;6.922;2022-07-23T04:51:24;19.40;78.20
53254;DHT22;39148;53.332;6.922;2022-07-23T04:53:49;19.50;78.50
53254;DHT22;39148;53.332;6.922;2022-07-23T04:56:15;19.40;78.40
53254;DHT22;39148;53.332;6.922;2022-07-23T04:58:41;19.40;78.40
53254;DHT22;39148;53.332;6.922;2022-07-23T05:01:07;19.50;78.50
53254;DHT22;39148;53.332;6.922;2022-07-23T05:03:33;19.50;78.40
53254;DHT22;39148;53.332;6.922;2022-07-23T05:05:58;19.40;78.50
53254;DHT22;39148;53.332;6.922;2022-07-23T05:08:24;19.40;78.50
53254;DHT22;39148;53.332;6.922;2022-07-23T05:10:50;19.40;78.50
53254;DHT22;39148;53.332;6.922;2022-07-23T05:13:16;19.40;78.50
53254;DHT22;39148;53.332;6.922;2022-07-23T05:15:42;19.60;78.70
53254;DHT22;39148;53.332;6.922;2022-07-23T05:18:08;19.40;78.70
53254;DHT22;39148;53.332;6.922;2022-07-23T05:20:34;19.40;78.60
53254;DHT22;39148;53.332;6.922;2022-07-23T05:23:00;19.40;78.70
53254;DHT22;39148;53.332;6.922;2022-07-23T05:25:26;19.40;79.20
53254;DHT22;39148;53.332;6.922;2022-07-23T05:27:51;19.40;78.60
53254;DHT22;39148;53.332;6.922;2022-07-23T05:30:17;19.40;78.70
53254;DHT22;39148;53.332;6.922;2022-07-23T05:32:43;19.30;78.60
53254;DHT22;39148;53.332;6.922;2022-07-23T05:35:09;19.40;78.70
53254;DHT22;39148;53.332;6.922;2022-07-23T05:37:35;19.30;78.70
53254;DHT22;39148;53.332;6.922;2022-07-23T05:40:06;19.20;78.80
53254;DHT22;39148;53.332;6.922;2022-07-23T05:42:36;19.30;78.50
53254;DHT22;39148;53.332;6.922;2022-07-23T05:45:03;19.40;77.70
53254;DHT22;39148;53.332;6.922;2022-07-23T05:47:38;19.40;79.10
53254;DHT22;39148;53.332;6.922;2022-07-23T05:50:04;19.40;79.00
53254;DHT22;39148;53.332;6.922;2022-07-23T05:52:29;19.40;78.70
53254;DHT22;39148;53.332;6.922;2022-07-23T05:54:55;19.30;78.80
53254;DHT22;39148;53.332;6.922;2022-07-23T05:57:21;19.30;78.80
53254;DHT22;39148;53.332;6.922;2022-07-23T05:59:46;19.30;78.80
53254;DHT22;39148;53.332;6.922;2022-07-23T06:02:12;19.30;78.80
53254;DHT22;39148;53.332;6.922;2022-07-23T06:04:38;19.40;78.90
53254;DHT22;39148;53.332;6.922;2022-07-23T06:07:03;19.30;78.90
53254;DHT22;39148;53.332;6.922;2022-07-23T06:09:29;19.30;78.80
53254;DHT22;39148;53.332;6.922;2022-07-23T06:11:55;19.30;78.90
53254;DHT22;39148;53.332;6.922;2022-07-23T06:14:20;19.30;78.90
53254;DHT22;39148;53.332;6.922;2022-07-23T06:16:46;19.40;79.00
53254;DHT22;39148;53.332;6.922;2022-07-23T06:19:11;19.40;79.00
53254;DHT22;39148;53.332;6.922;2022-07-23T06:21:37;19.30;79.40
53254;DHT22;39148;53.332;6.922;2022-07-23T06:24:03;19.30;78.90
53254;DHT22;39148;53.332;6.922;2022-07-23T06:26:29;19.30;78.90
53254;DHT22;39148;53.332;6.922;2022-07-23T06:28:54;19.30;78.90
53254;DHT22;39148;53.332;6.922;2022-07-23T06:31:20;19.30;78.90
53254;DHT22;39148;53.332;6.922;2022-07-23T06:33:45;19.40;79.40
53254;DHT22;39148;53.332;6.922;2022-07-23T06:36:11;19.30;78.90
53254;DHT22;39148;53.332;6.922;2022-07-23T06:38:37;19.30;78.90
53254;DHT22;39148;53.332;6.922;2022-07-23T06:41:02;19.30;78.80
53254;DHT22;39148;53.332;6.922;2022-07-23T06:43:30;19.50;79.00
53254;DHT22;39148;53.332;6.922;2022-07-23T06:45:56;19.30;79.00
53254;DHT22;39148;53.332;6.922;2022-07-23T06:48:21;19.30;78.90
53254;DHT22;39148;53.332;6.922;2022-07-23T06:50:48;19.40;79.00
53254;DHT22;39148;53.332;6.922;2022-07-23T06:53:13;19.30;78.80
53254;DHT22;39148;53.332;6.922;2022-07-23T06:55:39;19.40;78.90
53254;DHT22;39148;53.332;6.922;2022-07-23T06:58:05;19.40;78.70
53254;DHT22;39148;53.332;6.922;2022-07-23T07:00:31;19.40;78.90
53254;DHT22;39148;53.332;6.922;2022-07-23T07:02:58;19.30;78.80
53254;DHT22;39148;53.332;6.922;2022-07-23T07:05:23;19.50;78.90
53254;DHT22;39148;53.332;6.922;2022-07-23T07:07:50;19.40;78.90
53254;DHT22;39148;53.332;6.922;2022-07-23T07:10:16;19.40;78.80
53254;DHT22;39148;53.332;6.922;2022-07-23T07:12:43;19.40;78.80
53254;DHT22;39148;53.332;6.922;2022-07-23T07:15:09;19.40;78.80
53254;DHT22;39148;53.332;6.922;2022-07-23T07:17:35;19.40;78.70
53254;DHT22;39148;53.332;6.922;2022-07-23T07:20:00;19.40;78.70
53254;DHT22;39148;53.332;6.922;2022-07-23T07:22:26;19.50;78.70
53254;DHT22;39148;53.332;6.922;2022-07-23T07:24:52;19.40;78.60
53254;DHT22;39148;53.332;6.922;2022-07-23T07:27:17;19.40;78.60
53254;DHT22;39148;53.332;6.922;2022-07-23T07:29:43;19.40;78.70
53254;DHT22;39148;53.332;6.922;2022-07-23T07:32:09;19.50;78.60
53254;DHT22;39148;53.332;6.922;2022-07-23T07:34:34;19.40;78.60
53254;DHT22;39148;53.332;6.922;2022-07-23T07:37:00;19.50;78.60
53254;DHT22;39148;53.332;6.922;2022-07-23T07:39:26;19.50;78.70
53254;DHT22;39148;53.332;6.922;2022-07-23T07:41:52;19.50;79.10
53254;DHT22;39148;53.332;6.922;2022-07-23T07:44:17;19.50;78.60
53254;DHT22;39148;53.332;6.922;2022-07-23T07:46:43;19.50;78.50
53254;DHT22;39148;53.332;6.922;2022-07-23T07:49:09;19.50;78.40
53254;DHT22;39148;53.332;6.922;2022-07-23T07:51:34;19.50;78.50
53254;DHT22;39148;53.332;6.922;2022-07-23T07:54:00;19.50;78.50
53254;DHT22;39148;53.332;6.922;2022-07-23T07:56:26;19.50;78.50
53254;DHT22;39148;53.332;6.922;2022-07-23T07:58:52;19.50;78.40
53254;DHT22;39148;53.332;6.922;2022-07-23T08:01:17;19.60;78.50
53254;DHT22;39148;53.332;6.922;2022-07-23T08:03:46;19.60;78.50
53254;DHT22;39148;53.332;6.922;2022-07-23T08:06:12;19.60;78.50
53254;DHT22;39148;53.332;6.922;2022-07-23T08:08:37;19.50;78.30
53254;DHT22;39148;53.332;6.922;2022-07-23T08:11:03;19.60;78.30
53254;DHT22;39148;53.332;6.922;2022-07-23T08:13:29;19.70;78.20
53254;DHT22;39148;53.332;6.922;2022-07-23T08:15:54;19.70;78.30
53254;DHT22;39148;53.332;6.922;2022-07-23T08:18:20;19.60;78.20
53254;DHT22;39148;53.332;6.922;2022-07-23T08:20:46;19.70;78.20
53254;DHT22;39148;53.332;6.922;2022-07-23T08:23:12;19.70;78.20
53254;DHT22;39148;53.332;6.922;2022-07-23T08:25:40;19.80;78.20
53254;DHT22;39148;53.332;6.922;2022-07-23T08:28:08;19.70;78.30
53254;DHT22;39148;53.332;6.922;2022-07-23T08:30:34;19.70;78.30
53254;DHT22;39148;53.332;6.922;2022-07-23T08:33:05;19.80;78.30
53254;DHT22;39148;53.332;6.922;2022-07-23T08:35:37;19.80;78.40
53254;DHT22;39148;53.332;6.922;2022-07-23T08:38:05;19.70;78.30
53254;DHT22;39148;53.332;6.922;2022-07-23T08:40:33;19.80;78.30
53254;DHT22;39148;53.332;6.922;2022-07-23T08:42:59;19.80;78.20
53254;DHT22;39148;53.332;6.922;2022-07-23T08:45:28;19.80;78.10
53254;DHT22;39148;53.332;6.922;2022-07-23T08:47:56;19.80;77.90
53254;DHT22;39148;53.332;6.922;2022-07-23T08:50:24;20.00;78.20
53254;DHT22;39148;53.332;6.922;2022-07-23T08:52:50;20.00;78.10
53254;DHT22;39148;53.332;6.922;2022-07-23T08:55:21;20.00;78.10
53254;DHT22;39148;53.332;6.922;2022-07-23T08:57:52;19.90;78.10
53254;DHT22;39148;53.332;6.922;2022-07-23T09:00:20;20.00;78.10
53254;DHT22;39148;53.332;6.922;2022-07-23T09:02:46;20.00;77.90
53254;DHT22;39148;53.332;6.922;2022-07-23T09:05:13;20.00;77.70
53254;DHT22;39148;53.332;6.922;2022-07-23T09:08:10;20.00;77.80
53254;DHT22;39148;53.332;6.922;2022-07-23T09:10:44;20.00;76.70
53254;DHT22;39148;53.332;6.922;2022-07-23T09:16:09;20.10;76.60
53254;DHT22;39148;53.332;6.922;2022-07-23T09:18:45;20.20;76.40
53254;DHT22;39148;53.332;6.922;2022-07-23T09:21:19;20.20;76.40
53254;DHT22;39148;53.332;6.922;2022-07-23T09:23:52;20.20;76.30
53254;DHT22;39148;53.332;6.922;2022-07-23T09:26:22;19.50;75.90
53254;DHT22;39148;53.332;6.922;2022-07-23T09:28:52;20.30;77.40
53254;DHT22;39148;53.332;6.922;2022-07-23T09:31:19;20.30;77.70
53254;DHT22;39148;53.332;6.922;2022-07-23T09:33:45;20.30;77.20
53254;DHT22;39148;53.332;6.922;2022-07-23T09:36:11;20.30;77.20
53254;DHT22;39148;53.332;6.922;2022-07-23T09:38:48;20.30;77.10
53254;DHT22;39148;53.332;6.922;2022-07-23T09:41:14;20.30;77.40
53254;DHT22;39148;53.332;6.922;2022-07-23T09:43:40;20.40;77.10
53254;DHT22;39148;53.332;6.922;2022-07-23T09:46:24;20.40;76.90
53254;DHT22;39148;53.332;6.922;2022-07-23T09:48:54;20.50;77.30
53254;DHT22;39148;53.332;6.922;2022-07-23T09:51:22;20.50;77.10
53254;DHT22;39148;53.332;6.922;2022-07-23T09:54:03;20.50;76.70
53254;DHT22;39148;53.332;6.922;2022-07-23T09:56:29;20.60;76.80
53254;DHT22;39148;53.332;6.922;2022-07-23T09:58:55;20.60;76.80
53254;DHT22;39148;53.332;6.922;2022-07-23T10:01:33;20.60;76.80
53254;DHT22;39148;53.332;6.922;2022-07-23T10:03:59;20.60;76.80
53254;DHT22;39148;53.332;6.922;2022-07-23T10:06:27;20.70;76.80
53254;DHT22;39148;53.332;6.922;2022-07-23T10:08:58;20.70;76.70
53254;DHT22;39148;53.332;6.922;2022-07-23T10:11:27;20.70;76.70
53254;DHT22;39148;53.332;6.922;2022-07-23T10:13:54;20.80;76.60
53254;DHT22;39148;53.332;6.922;2022-07-23T10:16:21;20.70;76.40
53254;DHT22;39148;53.332;6.922;2022-07-23T10:18:47;20.80;76.40
53254;DHT22;39148;53.332;6.922;2022-07-23T10:21:18;20.90;76.40
53254;DHT22;39148;53.332;6.922;2022-07-23T10:23:58;20.90;76.50
53254;DHT22;39148;53.332;6.922;2022-07-23T10:26:44;20.80;76.40
53254;DHT22;39148;53.332;6.922;2022-07-23T10:29:47;20.90;76.50
53254;DHT22;39148;53.332;6.922;2022-07-23T10:32:36;21.00;75.30
53254;DHT22;39148;53.332;6.922;2022-07-23T10:40:21;21.10;76.20
53254;DHT22;39148;53.332;6.922;2022-07-23T10:42:50;21.00;75.10
53254;DHT22;39148;53.332;6.922;2022-07-23T10:45:34;21.00;76.00
53254;DHT22;39148;53.332;6.922;2022-07-23T10:48:17;21.10;76.20
53254;DHT22;39148;53.332;6.922;2022-07-23T10:50:45;21.10;75.00
53254;DHT22;39148;53.332;6.922;2022-07-23T10:56:15;21.30;76.00
53254;DHT22;39148;53.332;6.922;2022-07-23T10:58:49;21.30;75.70
53254;DHT22;39148;53.332;6.922;2022-07-23T11:01:35;21.30;75.90
53254;DHT22;39148;53.332;6.922;2022-07-23T11:04:02;21.30;76.00
53254;DHT22;39148;53.332;6.922;2022-07-23T11:09:42;21.40;75.80
53254;DHT22;39148;53.332;6.922;2022-07-23T11:14:59;21.40;75.70
53254;DHT22;39148;53.332;6.922;2022-07-23T11:17:26;21.50;75.70
53254;DHT22;39148;53.332;6.922;2022-07-23T11:25:28;21.60;74.10
53254;DHT22;39148;53.332;6.922;2022-07-23T11:27:55;21.60;73.80
53254;DHT22;39148;53.332;6.922;2022-07-23T11:35:35;21.70;75.00
53254;DHT22;39148;53.332;6.922;2022-07-23T11:38:14;21.70;74.70
53254;DHT22;39148;53.332;6.922;2022-07-23T11:40:41;21.60;74.80
53254;DHT22;39148;53.332;6.922;2022-07-23T11:43:09;21.70;74.50
53254;DHT22;39148;53.332;6.922;2022-07-23T11:45:41;21.70;74.50
53254;DHT22;39148;53.332;6.922;2022-07-23T11:48:20;21.60;74.50
53254;DHT22;39148;53.332;6.922;2022-07-23T11:50:47;21.70;73.20
53254;DHT22;39148;53.332;6.922;2022-07-23T11:53:13;21.80;74.30
53254;DHT22;39148;53.332;6.922;2022-07-23T11:55:39;21.70;74.10
53254;DHT22;39148;53.332;6.922;2022-07-23T11:58:05;21.80;74.00
53254;DHT22;39148;53.332;6.922;2022-07-23T12:00:32;21.80;74.00
53254;DHT22;39148;53.332;6.922;2022-07-23T12:03:00;21.90;74.10
53254;DHT22;39148;53.332;6.922;2022-07-23T12:05:33;21.90;74.10
53254;DHT22;39148;53.332;6.922;2022-07-23T12:07:59;21.90;74.10
53254;DHT22;39148;53.332;6.922;2022-07-23T12:10:35;22.00;74.00
53254;DHT22;39148;53.332;6.922;2022-07-23T12:13:07;21.90;74.70
53254;DHT22;39148;53.332;6.922;2022-07-23T12:15:40;21.90;72.70
53254;DHT22;39148;53.332;6.922;2022-07-23T12:18:08;21.90;74.00
53254;DHT22;39148;53.332;6.922;2022-07-23T12:20:37;22.00;73.90
53254;DHT22;39148;53.332;6.922;2022-07-23T12:23:05;22.10;73.90
53254;DHT22;39148;53.332;6.922;2022-07-23T12:25:34;22.00;73.80
53254;DHT22;39148;53.332;6.922;2022-07-23T12:28:20;22.10;73.80
53254;DHT22;39148;53.332;6.922;2022-07-23T12:30:53;22.00;72.80
53254;DHT22;39148;53.332;6.922;2022-07-23T12:33:24;22.20;74.00
53254;DHT22;39148;53.332;6.922;2022-07-23T12:35:51;22.10;73.80
53254;DHT22;39148;53.332;6.922;2022-07-23T12:38:22;22.20;73.70
53254;DHT22;39148;53.332;6.922;2022-07-23T12:40:50;22.20;73.70
53254;DHT22;39148;53.332;6.922;2022-07-23T12:43:27;22.20;73.60
53254;DHT22;39148;53.332;6.922;2022-07-23T12:46:08;22.30;72.70
53254;DHT22;39148;53.332;6.922;2022-07-23T12:51:07;22.40;72.80
53254;DHT22;39148;53.332;6.922;2022-07-23T12:53:41;22.30;74.30
53254;DHT22;39148;53.332;6.922;2022-07-23T13:06:32;22.40;72.40
53254;DHT22;39148;53.332;6.922;2022-07-23T13:08:58;22.30;73.40
53254;DHT22;39148;53.332;6.922;2022-07-23T13:11:23;22.40;73.30
53254;DHT22;39148;53.332;6.922;2022-07-23T13:13:49;22.40;73.20
53254;DHT22;39148;53.332;6.922;2022-07-23T13:16:15;22.40;73.20
53254;DHT22;39148;53.332;6.922;2022-07-23T13:18:41;22.50;73.20
53254;DHT22;39148;53.332;6.922;2022-07-23T13:21:07;22.40;73.10
53254;DHT22;39148;53.332;6.922;2022-07-23T13:23:33;22.50;73.30
53254;DHT22;39148;53.332;6.922;2022-07-23T13:25:59;22.50;73.10
53254;DHT22;39148;53.332;6.922;2022-07-23T13:28:25;22.40;73.10
53254;DHT22;39148;53.332;6.922;2022-07-23T13:30:51;22.60;73.10
53254;DHT22;39148;53.332;6.922;2022-07-23T13:33:19;22.50;73.10
53254;DHT22;39148;53.332;6.922;2022-07-23T13:35:45;22.60;73.20
53254;DHT22;39148;53.332;6.922;2022-07-23T13:38:11;22.60;73.00
53254;DHT22;39148;53.332;6.922;2022-07-23T13:40:39;22.60;73.00
53254;DHT22;39148;53.332;6.922;2022-07-23T13:43:10;22.70;73.20
53254;DHT22;39148;53.332;6.922;2022-07-23T13:45:36;22.60;73.10
53254;DHT22;39148;53.332;6.922;2022-07-23T13:48:02;22.60;72.80
53254;DHT22;39148;53.332;6.922;2022-07-23T13:50:28;22.60;72.70
53254;DHT22;39148;53.332;6.922;2022-07-23T13:52:53;22.70;72.90
53254;DHT22;39148;53.332;6.922;2022-07-23T13:55:19;22.80;72.80
53254;DHT22;39148;53.332;6.922;2022-07-23T13:57:45;22.70;72.80
53254;DHT22;39148;53.332;6.922;2022-07-23T14:00:11;22.80;72.80
53254;DHT22;39148;53.332;6.922;2022-07-23T14:02:39;22.80;72.70
53254;DHT22;39148;53.332;6.922;2022-07-23T14:05:07;22.80;72.80
53254;DHT22;39148;53.332;6.922;2022-07-23T14:07:34;22.80;72.70
53254;DHT22;39148;53.332;6.922;2022-07-23T14:10:00;22.90;72.90
53254;DHT22;39148;53.332;6.922;2022-07-23T14:12:26;22.90;72.70
53254;DHT22;39148;53.332;6.922;2022-07-23T14:14:52;22.90;72.70
53254;DHT22;39148;53.332;6.922;2022-07-23T14:17:18;23.00;72.70
53254;DHT22;39148;53.332;6.922;2022-07-23T14:19:44;22.90;72.70
53254;DHT22;39148;53.332;6.922;2022-07-23T14:22:10;23.00;72.70
53254;DHT22;39148;53.332;6.922;2022-07-23T14:24:35;23.00;72.70
53254;DHT22;39148;53.332;6.922;2022-07-23T14:27:02;23.00;72.60
53254;DHT22;39148;53.332;6.922;2022-07-23T14:29:29;23.10;72.70
53254;DHT22;39148;53.332;6.922;2022-07-23T14:31:54;23.10;72.60
53254;DHT22;39148;53.332;6.922;2022-07-23T14:34:20;23.00;72.40
53254;DHT22;39148;53.332;6.922;2022-07-23T14:36:46;23.10;72.50
53254;DHT22;39148;53.332;6.922;2022-07-23T14:39:11;23.20;72.50
53254;DHT22;39148;53.332;6.922;2022-07-23T14:41:38;23.10;72.30
53254;DHT22;39148;53.332;6.922;2022-07-23T14:44:04;23.20;72.50
53254;DHT22;39148;53.332;6.922;2022-07-23T14:46:30;23.20;72.40
53254;DHT22;39148;53.332;6.922;2022-07-23T14:48:56;23.30;72.30
53254;DHT22;39148;53.332;6.922;2022-07-23T14:51:22;23.30;74.20
53254;DHT22;39148;53.332;6.922;2022-07-23T14:53:48;23.30;72.20
53254;DHT22;39148;53.332;6.922;2022-07-23T14:56:14;23.40;72.20
53254;DHT22;39148;53.332;6.922;2022-07-23T14:58:41;23.40;72.40
53254;DHT22;39148;53.332;6.922;2022-07-23T15:01:06;23.50;72.40
53254;DHT22;39148;53.332;6.922;2022-07-23T15:03:33;23.50;72.20
53254;DHT22;39148;53.332;6.922;2022-07-23T15:05:59;23.40;72.10
53254;DHT22;39148;53.332;6.922;2022-07-23T15:08:25;23.50;72.10
53254;DHT22;39148;53.332;6.922;2022-07-23T15:10:51;23.60;72.00
53254;DHT22;39148;53.332;6.922;2022-07-23T15:13:17;23.60;72.50
53254;DHT22;39148;53.332;6.922;2022-07-23T15:15:43;23.60;72.10
53254;DHT22;39148;53.332;6.922;2022-07-23T15:18:09;23.60;71.90
53254;DHT22;39148;53.332;6.922;2022-07-23T15:20:34;23.70;71.80
53254;DHT22;39148;53.332;6.922;2022-07-23T15:23:02;23.70;71.80
53254;DHT22;39148;53.332;6.922;2022-07-23T15:25:28;23.80;71.70
53254;DHT22;39148;53.332;6.922;2022-07-23T15:27:54;23.70;71.70
53254;DHT22;39148;53.332;6.922;2022-07-23T15:30:20;23.90;71.70
53254;DHT22;39148;53.332;6.922;2022-07-23T15:32:46;23.80;71.70
53254;DHT22;39148;53.332;6.922;2022-07-23T15:35:12;23.80;71.60
53254;DHT22;39148;53.332;6.922;2022-07-23T15:37:37;23.80;71.50
53254;DHT22;39148;53.332;6.922;2022-07-23T15:40:04;23.90;71.50
53254;DHT22;39148;53.332;6.922;2022-07-23T15:42:31;24.00;71.20
53254;DHT22;39148;53.332;6.922;2022-07-23T15:44:58;23.80;71.40
53254;DHT22;39148;53.332;6.922;2022-07-23T15:47:23;23.90;71.40
53254;DHT22;39148;53.332;6.922;2022-07-23T15:49:49;23.90;71.40
53254;DHT22;39148;53.332;6.922;2022-07-23T15:52:15;24.00;71.40
53254;DHT22;39148;53.332;6.922;2022-07-23T15:54:41;23.90;71.30
53254;DHT22;39148;53.332;6.922;2022-07-23T15:57:07;24.00;71.40
53254;DHT22;39148;53.332;6.922;2022-07-23T15:59:33;24.00;71.40
53254;DHT22;39148;53.332;6.922;2022-07-23T16:01:59;24.00;71.30
53254;DHT22;39148;53.332;6.922;2022-07-23T16:04:25;24.00;71.30
53254;DHT22;39148;53.332;6.922;2022-07-23T16:06:50;24.00;71.30
53254;DHT22;39148;53.332;6.922;2022-07-23T16:09:16;24.00;71.30
53254;DHT22;39148;53.332;6.922;2022-07-23T16:11:42;24.10;71.40